createdAt,value
2022-12-08T00:02:13.491Z,15.44
2022-12-08T00:04:58.878Z,15.89
2022-12-08T00:07:43.811Z,15.73
2022-12-08T00:10:48.453Z,17.15
2022-12-08T00:13:33.609Z,17.25
2022-12-08T00:16:18.416Z,17.29
2022-12-08T00:19:03.710Z,18.01
2022-12-08T00:21:48.741Z,17.43
2022-12-08T00:24:33.785Z,16.87
2022-12-08T00:27:18.788Z,17.37
2022-12-08T00:30:03.644Z,17.72
2022-12-08T00:32:48.490Z,17.01
2022-12-08T00:35:34.853Z,17.51
2022-12-08T00:38:21.442Z,16.98
2022-12-08T00:41:06.349Z,16.59
2022-12-08T00:43:51.257Z,16.84
2022-12-08T00:46:36.212Z,16.99
2022-12-08T00:49:21.271Z,16.91
2022-12-08T00:52:06.176Z,17.37
2022-12-08T00:54:51.215Z,17.19
2022-12-08T00:57:35.977Z,16.94
2022-12-08T01:00:20.933Z,16.41
2022-12-08T01:03:05.878Z,16.58
2022-12-08T01:05:50.844Z,16.77
2022-12-08T01:08:35.704Z,17.38
2022-12-08T01:11:20.831Z,17.07
2022-12-08T01:14:05.827Z,17.20
2022-12-08T01:16:50.690Z,17.70
2022-12-08T01:19:36.099Z,18.39
2022-12-08T01:22:21.002Z,18.29
2022-12-08T01:25:05.826Z,18.74
2022-12-08T01:27:50.639Z,18.47
2022-12-08T01:30:35.651Z,18.80
2022-12-08T01:33:20.547Z,19.40
2022-12-08T01:36:05.446Z,18.47
2022-12-08T01:38:50.445Z,19.34
2022-12-08T01:41:35.409Z,18.31
2022-12-08T01:44:20.402Z,17.82
2022-12-08T01:47:05.450Z,18.61
2022-12-08T01:49:50.306Z,18.94
2022-12-08T01:52:35.251Z,19.00
2022-12-08T01:55:20.191Z,19.36
2022-12-08T01:58:05.134Z,18.85
2022-12-08T02:00:50.132Z,19.04
2022-12-08T02:03:35.144Z,19.21
2022-12-08T02:06:20.003Z,20.70
2022-12-08T02:09:05.005Z,20.22
2022-12-08T02:11:49.834Z,21.09
2022-12-08T02:14:34.810Z,20.59
2022-12-08T02:17:19.648Z,21.06
2022-12-08T02:20:04.697Z,21.28
2022-12-08T02:22:49.768Z,21.10
2022-12-08T02:25:34.559Z,21.28
2022-12-08T02:28:19.509Z,20.82
2022-12-08T02:31:04.481Z,21.34
2022-12-08T02:33:49.385Z,20.88
2022-12-08T02:36:34.323Z,20.77
2022-12-08T02:39:19.148Z,21.24
2022-12-08T02:42:03.933Z,21.12
2022-12-08T02:44:48.850Z,21.36
2022-12-08T02:47:33.713Z,20.86
2022-12-08T02:50:18.526Z,20.19
2022-12-08T02:53:03.467Z,19.80
2022-12-08T02:55:48.289Z,20.96
2022-12-08T02:58:33.228Z,20.84
2022-12-08T03:01:18.183Z,21.10
2022-12-08T03:04:03.200Z,20.42
2022-12-08T03:06:48.089Z,20.89
2022-12-08T03:09:33.123Z,20.49
2022-12-08T03:12:18.201Z,21.87
2022-12-08T03:15:03.237Z,21.71
2022-12-08T03:17:48.414Z,20.64
2022-12-08T03:20:33.194Z,21.18
2022-12-08T03:23:18.075Z,21.36
2022-12-08T03:26:03.125Z,20.88
2022-12-08T03:28:48.019Z,21.22
2022-12-08T03:31:32.909Z,22.10
2022-12-08T03:34:17.988Z,21.04
2022-12-08T03:37:02.854Z,20.84
2022-12-08T03:39:47.781Z,21.19
2022-12-08T03:42:32.798Z,20.54
2022-12-08T03:45:17.705Z,20.88
2022-12-08T03:48:02.634Z,20.97
2022-12-08T03:50:47.533Z,21.06
2022-12-08T03:53:32.546Z,21.20
2022-12-08T03:56:17.555Z,20.63
2022-12-08T03:59:02.526Z,20.15
2022-12-08T04:01:47.511Z,20.81
2022-12-08T04:04:32.397Z,20.29
2022-12-08T04:07:17.581Z,20.22
2022-12-08T04:10:02.734Z,21.11
2022-12-08T04:12:48.012Z,21.23
2022-12-08T04:15:32.787Z,21.05
2022-12-08T04:18:17.937Z,21.57
2022-12-08T04:21:02.873Z,20.68
2022-12-08T04:23:47.770Z,21.12
2022-12-08T04:26:32.680Z,20.31
2022-12-08T04:29:17.525Z,20.88
2022-12-08T04:32:02.521Z,20.78
2022-12-08T04:34:47.508Z,20.91
2022-12-08T04:37:32.433Z,21.36
2022-12-08T04:40:17.471Z,21.09
2022-12-08T04:43:02.410Z,21.01
2022-12-08T04:45:47.479Z,21.37
2022-12-08T04:48:32.450Z,20.45
2022-12-08T04:51:17.332Z,21.48
2022-12-08T04:54:02.350Z,21.22
2022-12-08T04:56:47.326Z,21.13
2022-12-08T04:59:32.158Z,21.14
2022-12-08T05:02:17.198Z,21.18
2022-12-08T05:05:02.519Z,20.35
2022-12-08T05:07:47.414Z,20.94
2022-12-08T05:10:32.356Z,20.80
2022-12-08T05:13:17.314Z,20.50
2022-12-08T05:16:02.337Z,20.81
2022-12-08T05:18:47.554Z,20.28
2022-12-08T05:21:32.574Z,20.49
2022-12-08T05:24:17.269Z,20.93
2022-12-08T05:27:02.210Z,21.00
2022-12-08T05:29:47.204Z,20.93
2022-12-08T05:32:32.076Z,20.81
2022-12-08T05:35:17.114Z,20.84
2022-12-08T05:38:01.931Z,21.29
2022-12-08T05:40:46.865Z,22.14
2022-12-08T05:43:31.693Z,21.14
2022-12-08T05:46:16.599Z,21.38
2022-12-08T05:49:01.956Z,21.44
2022-12-08T05:51:46.999Z,21.37
2022-12-08T05:54:31.944Z,21.48
2022-12-08T05:57:16.688Z,21.52
2022-12-08T06:00:02.299Z,21.31
2022-12-08T06:02:47.859Z,21.54
2022-12-08T06:05:33.081Z,21.88
2022-12-08T06:08:18.071Z,21.07
2022-12-08T06:11:03.527Z,20.95
2022-12-08T06:13:48.415Z,22.05
2022-12-08T06:16:33.306Z,20.78
2022-12-08T06:19:18.310Z,20.23
2022-12-08T06:22:03.174Z,20.24
2022-12-08T06:24:48.272Z,19.46
2022-12-08T06:27:33.138Z,19.74
2022-12-08T06:30:17.940Z,19.35
2022-12-08T06:33:02.800Z,19.70
2022-12-08T06:35:47.756Z,19.94
2022-12-08T06:38:32.772Z,19.13
2022-12-08T06:41:17.599Z,18.91
2022-12-08T06:44:02.558Z,19.93
2022-12-08T06:46:47.424Z,19.80
2022-12-08T06:49:32.460Z,19.99
2022-12-08T06:52:17.311Z,19.47
2022-12-08T06:55:02.413Z,19.28
2022-12-08T06:57:47.350Z,19.01
2022-12-08T07:00:32.373Z,18.92
2022-12-08T07:03:17.473Z,19.03
2022-12-08T07:06:04.293Z,18.91
2022-12-08T07:08:49.733Z,18.51
2022-12-08T07:11:34.689Z,18.23
2022-12-08T07:14:19.763Z,18.46
2022-12-08T07:17:04.975Z,17.55
2022-12-08T07:19:50.230Z,17.79
2022-12-08T07:22:35.108Z,18.17
2022-12-08T07:25:20.004Z,17.91
2022-12-08T07:28:04.847Z,17.85
2022-12-08T07:30:49.729Z,18.52
2022-12-08T07:33:34.665Z,18.71
2022-12-08T07:36:19.616Z,18.56
2022-12-08T07:39:04.380Z,17.86
2022-12-08T07:41:49.268Z,18.04
2022-12-08T07:44:34.116Z,17.89
2022-12-08T07:47:18.996Z,17.37
2022-12-08T07:50:04.335Z,17.53
2022-12-08T07:52:49.756Z,17.77
2022-12-08T07:55:34.598Z,17.04
2022-12-08T07:58:19.612Z,17.60
2022-12-08T08:01:04.595Z,18.03
2022-12-08T08:03:50.029Z,18.10
2022-12-08T08:06:34.971Z,17.69
2022-12-08T08:09:19.816Z,17.46
2022-12-08T08:12:29.478Z,17.43
2022-12-08T08:15:09.904Z,17.76
2022-12-08T08:17:54.757Z,17.64
2022-12-08T08:20:39.686Z,17.96
2022-12-08T08:23:24.576Z,17.66
2022-12-08T08:26:09.485Z,18.02
2022-12-08T08:28:54.316Z,17.59
2022-12-08T08:31:39.283Z,17.94
2022-12-08T08:34:24.532Z,17.78
2022-12-08T08:37:09.489Z,17.31
2022-12-08T08:39:54.927Z,17.04
2022-12-08T08:42:39.789Z,17.09
2022-12-08T08:45:24.638Z,16.43
2022-12-08T08:48:09.401Z,17.48
2022-12-08T08:50:54.441Z,17.34
2022-12-08T08:53:39.271Z,16.99
2022-12-08T08:56:24.373Z,15.31
2022-12-08T08:59:09.377Z,14.74
2022-12-08T09:01:54.459Z,14.91
2022-12-08T09:04:39.850Z,15.11
2022-12-08T09:07:24.733Z,14.04
2022-12-08T09:10:09.760Z,13.64
2022-12-08T09:12:54.750Z,17.95
2022-12-08T09:15:39.691Z,21.54
2022-12-08T09:18:24.542Z,17.33
2022-12-08T09:21:09.477Z,16.55
2022-12-08T09:23:54.556Z,16.04
2022-12-08T09:26:39.494Z,14.90
2022-12-08T09:29:24.415Z,15.43
2022-12-08T09:32:09.387Z,16.08
2022-12-08T09:34:54.254Z,19.35
2022-12-08T09:37:39.078Z,22.12
2022-12-08T09:40:23.919Z,21.98
2022-12-08T09:43:08.780Z,22.26
2022-12-08T09:45:53.742Z,22.49
2022-12-08T09:48:38.765Z,22.30
2022-12-08T09:51:23.602Z,22.70
2022-12-08T09:54:08.681Z,22.52
2022-12-08T09:56:54.177Z,22.56
2022-12-08T09:59:39.169Z,21.97
2022-12-08T10:02:24.104Z,22.07
2022-12-08T10:05:09.581Z,22.31
2022-12-08T10:07:54.615Z,22.60
2022-12-08T10:10:39.281Z,23.74
2022-12-08T10:13:24.348Z,23.09
2022-12-08T10:16:09.436Z,22.70
2022-12-08T10:18:54.788Z,22.62
2022-12-08T10:21:39.782Z,23.12
2022-12-08T10:24:24.749Z,23.38
2022-12-08T10:27:09.660Z,23.33
2022-12-08T10:29:54.488Z,23.35
2022-12-08T10:32:39.324Z,23.73
2022-12-08T10:35:24.168Z,23.15
2022-12-08T10:38:09.297Z,22.96
2022-12-08T10:40:54.231Z,22.97
2022-12-08T10:43:39.038Z,22.39
2022-12-08T10:46:23.897Z,22.84
2022-12-08T10:49:08.828Z,22.87
2022-12-08T10:51:53.848Z,22.64
2022-12-08T10:54:38.756Z,22.30
2022-12-08T10:57:23.922Z,22.14
2022-12-08T11:00:13.850Z,21.81
2022-12-08T11:02:59.424Z,21.90
2022-12-08T11:05:44.965Z,22.33
2022-12-08T11:08:29.878Z,22.71
2022-12-08T11:11:14.708Z,22.60
2022-12-08T11:13:59.518Z,22.58
2022-12-08T11:16:44.503Z,23.09
2022-12-08T11:19:29.742Z,22.95
2022-12-08T11:22:14.606Z,23.70
2022-12-08T11:24:59.627Z,22.51
2022-12-08T11:27:44.508Z,22.72
2022-12-08T11:30:29.480Z,22.96
2022-12-08T11:33:14.162Z,22.77
2022-12-08T11:35:59.014Z,22.77
2022-12-08T11:38:43.961Z,21.73
2022-12-08T11:41:28.908Z,22.41
2022-12-08T11:44:13.819Z,21.66
2022-12-08T11:46:58.696Z,21.95
2022-12-08T11:49:43.614Z,21.81
2022-12-08T11:52:28.398Z,21.14
2022-12-08T11:55:13.289Z,21.70
2022-12-08T11:57:58.149Z,22.06
2022-12-08T12:00:43.056Z,21.36
2022-12-08T12:03:28.071Z,20.97
2022-12-08T12:06:30.471Z,21.64
2022-12-08T12:09:18.312Z,21.65
2022-12-08T12:12:03.115Z,21.29
2022-12-08T12:14:48.104Z,20.50
2022-12-08T12:17:32.889Z,21.37
2022-12-08T12:20:17.805Z,20.21
2022-12-08T12:23:02.556Z,20.65
2022-12-08T12:25:47.576Z,20.93
2022-12-08T12:28:32.577Z,20.28
2022-12-08T12:31:17.645Z,20.07
2022-12-08T12:34:02.960Z,19.94
2022-12-08T12:36:47.772Z,20.53
2022-12-08T12:39:32.562Z,19.77
2022-12-08T12:42:17.434Z,20.21
2022-12-08T12:45:02.341Z,20.52
2022-12-08T12:47:52.371Z,20.21
2022-12-08T12:50:41.037Z,19.97
2022-12-08T12:53:25.892Z,19.84
2022-12-08T12:56:10.803Z,19.07
2022-12-08T12:58:55.704Z,19.46
2022-12-08T13:01:40.715Z,20.23
2022-12-08T13:04:25.592Z,19.81
2022-12-08T13:07:10.512Z,18.82
2022-12-08T13:09:55.623Z,18.67
2022-12-08T13:12:40.413Z,18.71
2022-12-08T13:15:25.396Z,19.41
2022-12-08T13:18:10.311Z,18.83
2022-12-08T13:20:55.313Z,19.34
2022-12-08T13:23:40.108Z,19.87
2022-12-08T13:26:25.102Z,18.66
2022-12-08T13:29:09.976Z,19.26
2022-12-08T13:31:54.889Z,18.04
2022-12-08T13:34:39.890Z,19.11
2022-12-08T13:37:24.871Z,19.30
2022-12-08T13:40:09.887Z,18.13
2022-12-08T13:42:54.641Z,18.28
2022-12-08T13:46:41.819Z,18.36
2022-12-08T13:57:59.826Z,18.01
2022-12-08T14:00:44.765Z,17.36
2022-12-08T14:03:30.741Z,17.76
2022-12-08T14:06:16.115Z,17.27
2022-12-08T14:09:08.432Z,18.88
2022-12-08T14:11:55.805Z,18.09
2022-12-08T14:15:01.992Z,17.14
2022-12-08T14:17:45.742Z,18.08
2022-12-08T14:20:30.599Z,17.92
2022-12-08T14:23:15.497Z,17.91
2022-12-08T14:26:00.284Z,18.74
2022-12-08T14:28:45.433Z,18.33
2022-12-08T14:31:30.503Z,18.58
2022-12-08T14:34:15.867Z,18.40
2022-12-08T14:37:00.957Z,18.46
2022-12-08T14:39:46.037Z,19.29
2022-12-08T14:42:30.833Z,18.86
2022-12-08T14:45:15.877Z,18.05
2022-12-08T14:48:00.790Z,18.46
2022-12-08T14:50:45.679Z,18.22
2022-12-08T14:53:30.462Z,18.44
2022-12-08T14:56:15.266Z,18.22
2022-12-08T14:59:00.136Z,18.65
2022-12-08T15:01:45.173Z,18.86
2022-12-08T15:04:30.190Z,18.05
2022-12-08T15:07:15.617Z,17.94
2022-12-08T15:10:00.353Z,18.87
2022-12-08T15:12:45.232Z,18.73
2022-12-08T15:15:30.282Z,17.82
2022-12-08T15:18:18.284Z,18.22
2022-12-08T15:21:03.244Z,18.07
2022-12-08T15:23:48.262Z,18.85
2022-12-08T15:26:33.121Z,18.13
2022-12-08T15:29:17.977Z,18.94
2022-12-08T15:32:02.922Z,18.50
2022-12-08T15:34:47.848Z,19.02
2022-12-08T15:37:32.731Z,18.41
2022-12-08T15:40:17.699Z,18.49
2022-12-08T15:43:02.731Z,18.06
2022-12-08T15:45:57.994Z,18.16
2022-12-08T15:48:44.205Z,18.14
2022-12-08T15:51:29.098Z,17.38
2022-12-08T15:54:14.216Z,18.15
2022-12-08T16:00:04.756Z,19.06
2022-12-08T16:03:22.548Z,18.57
2022-12-08T16:06:39.013Z,18.46
2022-12-08T16:09:11.337Z,19.08
2022-12-08T16:12:06.458Z,18.82
2022-12-08T16:17:58.205Z,19.08
2022-12-08T16:23:48.133Z,19.82
2022-12-08T16:27:42.351Z,19.46
2022-12-08T16:29:38.193Z,19.41
2022-12-08T16:32:23.141Z,18.99
2022-12-08T16:35:08.100Z,18.34
2022-12-08T16:37:52.974Z,19.40
2022-12-08T16:40:37.950Z,19.72
2022-12-08T16:43:22.931Z,19.08
2022-12-08T16:46:07.982Z,19.59
2022-12-08T16:48:53.241Z,20.23
2022-12-08T16:51:38.236Z,19.41
2022-12-08T16:54:23.172Z,19.05
2022-12-08T16:57:08.092Z,19.32
2022-12-08T16:59:53.119Z,19.61
2022-12-08T17:02:37.991Z,19.79
2022-12-08T17:05:22.877Z,19.73
2022-12-08T17:08:08.176Z,19.82
2022-12-08T17:10:53.134Z,19.66
2022-12-08T17:13:38.113Z,18.88
2022-12-08T17:16:23.085Z,20.27
2022-12-08T17:19:08.550Z,20.35
2022-12-08T17:21:53.744Z,20.22
2022-12-08T17:24:38.764Z,20.15
2022-12-08T17:27:23.626Z,20.51
2022-12-08T17:30:08.908Z,20.77
2022-12-08T17:32:54.091Z,20.85
2022-12-08T17:35:39.016Z,20.77
2022-12-08T17:38:24.012Z,21.41
2022-12-08T17:41:08.690Z,20.81
2022-12-08T17:43:53.504Z,21.40
2022-12-08T17:46:42.088Z,21.70
2022-12-08T17:49:28.193Z,21.54
2022-12-08T17:52:13.117Z,20.35
2022-12-08T17:54:58.224Z,21.17
2022-12-08T17:57:43.608Z,21.37
2022-12-08T18:00:28.667Z,21.90
2022-12-08T18:03:13.737Z,22.26
2022-12-08T18:05:58.754Z,22.09
2022-12-08T18:08:43.672Z,20.85
2022-12-08T18:11:28.551Z,21.46
2022-12-08T18:14:13.401Z,21.92
2022-12-08T18:16:58.625Z,21.67
2022-12-08T18:19:43.948Z,22.51
2022-12-08T18:22:29.010Z,22.18
2022-12-08T18:25:13.851Z,21.85
2022-12-08T18:27:58.842Z,22.28
2022-12-08T18:30:43.910Z,23.13
2022-12-08T18:33:28.883Z,22.44
2022-12-08T18:36:14.084Z,23.07
2022-12-08T18:38:58.940Z,25.95
2022-12-08T18:41:43.850Z,31.16
2022-12-08T18:44:28.785Z,29.81
2022-12-08T18:47:13.704Z,30.89
2022-12-08T18:49:58.664Z,34.03
2022-12-08T18:52:43.741Z,28.33
2022-12-08T18:55:28.758Z,25.70
2022-12-08T18:58:13.533Z,24.62
2022-12-08T19:00:58.597Z,24.00
2022-12-08T19:04:04.705Z,24.26
2022-12-08T19:06:48.392Z,24.72
2022-12-08T19:09:33.407Z,24.88
2022-12-08T19:12:18.384Z,24.59
2022-12-08T19:15:03.750Z,24.49
2022-12-08T19:17:48.816Z,24.59
2022-12-08T19:20:33.875Z,25.02
2022-12-08T19:23:18.931Z,24.22
2022-12-08T19:26:03.774Z,24.86
2022-12-08T19:28:48.769Z,24.16
2022-12-08T19:31:33.841Z,22.76
2022-12-08T19:34:19.206Z,22.87
2022-12-08T19:37:04.072Z,22.90
2022-12-08T19:39:49.038Z,22.22
2022-12-08T19:42:33.995Z,21.98
2022-12-08T19:45:18.966Z,21.92
2022-12-08T19:48:04.011Z,21.91
2022-12-08T19:50:48.921Z,21.90
2022-12-08T19:53:33.946Z,22.07
2022-12-08T19:56:18.697Z,22.24
2022-12-08T19:59:03.609Z,23.05
2022-12-08T20:01:48.615Z,22.30
2022-12-08T20:04:33.913Z,22.48
2022-12-08T20:07:18.825Z,22.86
2022-12-08T20:10:04.231Z,21.86
2022-12-08T20:12:49.921Z,21.31
2022-12-08T20:15:34.846Z,20.77
2022-12-08T20:18:19.647Z,21.11
2022-12-08T20:21:04.460Z,21.27
2022-12-08T20:23:49.457Z,20.87
2022-12-08T20:26:34.291Z,22.53
2022-12-08T20:29:19.269Z,21.73
2022-12-08T20:32:04.339Z,21.59
2022-12-08T20:34:49.686Z,21.98
2022-12-08T20:37:34.706Z,22.12
2022-12-08T20:40:19.756Z,23.07
2022-12-08T20:43:04.784Z,24.44
2022-12-08T20:45:49.645Z,24.96
2022-12-08T20:48:34.627Z,24.22
2022-12-08T20:51:19.734Z,24.56
2022-12-08T20:54:05.243Z,23.97
2022-12-08T20:56:50.745Z,23.46
2022-12-08T20:59:35.642Z,23.78
2022-12-08T21:02:21.170Z,23.31
2022-12-08T21:05:06.503Z,23.06
2022-12-08T21:07:51.867Z,22.98
2022-12-08T21:10:40.787Z,22.09
2022-12-08T21:13:29.150Z,23.83
2022-12-08T21:16:14.369Z,25.74
2022-12-08T21:18:59.219Z,27.71
2022-12-08T21:21:44.147Z,27.55
2022-12-08T21:24:33.941Z,26.86
2022-12-08T21:27:19.896Z,26.72
2022-12-08T21:30:05.255Z,26.95
2022-12-08T21:32:50.742Z,27.55
2022-12-08T21:35:36.124Z,27.01
2022-12-08T21:38:20.955Z,27.96
2022-12-08T21:41:06.025Z,26.95
2022-12-08T21:43:51.286Z,27.14
2022-12-08T21:46:36.761Z,26.32
2022-12-08T21:49:22.022Z,26.79
2022-12-08T21:52:07.571Z,26.49
2022-12-08T21:54:53.028Z,25.79
2022-12-08T21:57:38.336Z,25.86
2022-12-08T22:00:23.681Z,25.96
2022-12-08T22:03:09.090Z,25.99
2022-12-08T22:05:54.639Z,26.12
2022-12-08T22:08:39.886Z,27.20
2022-12-08T22:11:25.168Z,26.18
2022-12-08T22:14:14.362Z,26.34
2022-12-08T22:17:00.220Z,26.69
2022-12-08T22:19:45.342Z,26.97
2022-12-08T22:22:30.318Z,26.37
2022-12-08T22:25:15.338Z,26.05
2022-12-08T22:28:00.790Z,25.86
2022-12-08T22:30:45.488Z,25.70
2022-12-08T22:33:30.647Z,26.11
2022-12-08T22:36:15.634Z,26.06
2022-12-08T22:39:00.618Z,25.42
2022-12-08T22:41:45.453Z,25.43
2022-12-08T22:44:30.435Z,25.72
2022-12-08T22:47:15.523Z,25.81
2022-12-08T22:50:00.861Z,25.89
2022-12-08T22:52:46.287Z,26.71
2022-12-08T22:55:31.279Z,26.23
2022-12-08T22:58:16.631Z,26.09
2022-12-08T23:01:01.724Z,26.08
2022-12-08T23:03:47.021Z,26.41
2022-12-08T23:06:32.613Z,26.42
2022-12-08T23:09:18.013Z,26.58
2022-12-08T23:12:03.011Z,26.19
2022-12-08T23:14:47.820Z,27.30
2022-12-08T23:17:33.127Z,28.24
2022-12-08T23:20:18.392Z,27.87
2022-12-08T23:23:03.649Z,28.28
2022-12-08T23:25:48.918Z,28.85
2022-12-08T23:28:33.766Z,28.41
2022-12-08T23:31:18.883Z,28.50
2022-12-08T23:34:04.073Z,29.01
2022-12-08T23:36:49.117Z,28.58
2022-12-08T23:39:34.288Z,28.25
2022-12-08T23:42:19.022Z,27.84
2022-12-08T23:45:04.316Z,29.00
2022-12-08T23:47:49.619Z,30.29
2022-12-08T23:50:34.524Z,30.24
2022-12-08T23:53:19.371Z,28.60
2022-12-08T23:56:04.674Z,29.68
2022-12-08T23:58:50.028Z,29.32
